createdAt,value
2023-02-01T00:02:53.873Z,5.5
2023-02-01T00:07:53.820Z,5.5
2023-02-01T00:12:53.820Z,5.5
2023-02-01T00:17:53.819Z,5.6
2023-02-01T00:22:53.816Z,5.7
2023-02-01T00:27:53.832Z,5.8
2023-02-01T00:32:53.824Z,5.9
2023-02-01T00:37:53.832Z,5.9
2023-02-01T00:42:53.824Z,6.0
2023-02-01T00:47:53.825Z,6.0
2023-02-01T00:52:53.838Z,6.0
2023-02-01T00:57:53.825Z,6.0
2023-02-01T01:02:53.843Z,6.1
2023-02-01T01:07:53.829Z,6.1
2023-02-01T01:12:53.841Z,6.2
2023-02-01T01:17:53.935Z,6.2
2023-02-01T01:22:53.835Z,6.2
2023-02-01T01:27:53.840Z,6.2
2023-02-01T01:32:53.838Z,6.2
2023-02-01T01:37:53.838Z,6.2
2023-02-01T01:42:53.841Z,6.2
2023-02-01T01:47:53.892Z,6.2
2023-02-01T01:52:53.844Z,6.2
2023-02-01T01:57:53.866Z,6.2
2023-02-01T02:02:53.851Z,6.2
2023-02-01T02:07:54.131Z,6.2
2023-02-01T02:12:53.865Z,6.2
2023-02-01T02:17:53.853Z,6.2
2023-02-01T02:22:53.857Z,6.1
2023-02-01T02:27:53.850Z,6.1
2023-02-01T02:32:53.862Z,6.0
2023-02-01T02:37:53.878Z,5.9
2023-02-01T02:42:53.875Z,5.8
2023-02-01T02:47:53.867Z,5.7
2023-02-01T02:52:53.853Z,5.6
2023-02-01T02:57:53.863Z,5.6
2023-02-01T03:02:53.966Z,5.6
2023-02-01T03:12:53.863Z,5.6
2023-02-01T03:17:53.878Z,5.7
2023-02-01T03:22:53.989Z,5.7
2023-02-01T03:27:53.869Z,5.8
2023-02-01T03:32:53.873Z,5.8
2023-02-01T03:37:53.872Z,5.8
2023-02-01T03:42:53.875Z,5.8
2023-02-01T03:47:53.868Z,5.8
2023-02-01T03:52:53.887Z,5.7
2023-02-01T03:57:53.884Z,5.7
2023-02-01T04:02:53.890Z,5.7
2023-02-01T04:07:53.890Z,5.7
2023-02-01T04:12:53.898Z,5.7
2023-02-01T04:17:54.277Z,5.6
2023-02-01T04:22:54.000Z,5.6
2023-02-01T04:27:54.009Z,5.6
2023-02-01T04:32:53.895Z,5.6
2023-02-01T04:37:53.894Z,5.6
2023-02-01T04:42:53.891Z,5.5
2023-02-01T04:47:53.908Z,5.5
2023-02-01T04:52:53.884Z,5.5
2023-02-01T04:57:53.897Z,5.5
2023-02-01T05:02:53.889Z,5.5
2023-02-01T05:07:53.898Z,5.6
2023-02-01T05:12:53.897Z,5.7
2023-02-01T05:17:53.903Z,5.8
2023-02-01T05:22:53.896Z,5.9
2023-02-01T05:27:53.906Z,6.0
2023-02-01T05:32:53.908Z,6.1
2023-02-01T05:37:53.939Z,6.1
2023-02-01T05:42:53.904Z,6.2
2023-02-01T05:47:53.915Z,6.2
2023-02-01T05:52:53.927Z,6.2
2023-02-01T05:57:53.912Z,6.2
2023-02-01T06:02:54.256Z,6.2
2023-02-01T06:07:53.921Z,6.2
2023-02-01T06:12:53.920Z,6.2
2023-02-01T06:17:53.921Z,6.3
2023-02-01T06:22:53.918Z,6.3
2023-02-01T06:27:53.928Z,6.3
2023-02-01T06:32:53.933Z,6.4
2023-02-01T06:37:53.925Z,6.4
2023-02-01T06:42:53.931Z,6.5
2023-02-01T06:47:53.932Z,6.5
2023-02-01T06:52:53.933Z,6.6
2023-02-01T06:57:53.930Z,6.7
2023-02-01T07:02:53.942Z,6.8
2023-02-01T07:07:53.937Z,6.9
2023-02-01T07:12:53.937Z,7.0
2023-02-01T07:17:53.945Z,7.0
2023-02-01T07:22:53.941Z,7.0
2023-02-01T07:27:53.939Z,7.0
2023-02-01T07:32:54.028Z,7.0
2023-02-01T07:37:53.951Z,7.0
2023-02-01T07:42:53.946Z,7.0
2023-02-01T07:47:53.970Z,7.0
2023-02-01T07:52:53.949Z,7.0
2023-02-01T07:57:53.956Z,7.0
2023-02-01T08:02:53.973Z,7.0
2023-02-01T08:07:54.041Z,7.0
2023-02-01T08:12:53.986Z,7.0
2023-02-01T08:17:54.004Z,7.0
2023-02-01T08:22:54.599Z,7.0
2023-02-01T08:27:53.987Z,7.0
2023-02-01T08:32:53.982Z,7.1
2023-02-01T08:37:53.987Z,7.2
2023-02-01T08:42:53.966Z,7.3
2023-02-01T08:47:53.968Z,7.4
2023-02-01T08:52:53.982Z,7.4
2023-02-01T08:57:53.975Z,7.4
2023-02-01T09:02:53.974Z,7.4
2023-02-01T09:07:53.972Z,7.5
2023-02-01T09:12:53.974Z,7.6
2023-02-01T09:17:53.985Z,7.7
2023-02-01T09:22:53.981Z,7.7
2023-02-01T09:27:53.986Z,7.8
2023-02-01T09:32:53.989Z,7.9
2023-02-01T09:37:53.990Z,8.0
2023-02-01T09:42:53.998Z,8.1
2023-02-01T09:47:54.017Z,8.2
2023-02-01T09:52:53.996Z,8.3
2023-02-01T09:57:54.003Z,8.4
2023-02-01T10:02:53.998Z,8.4
2023-02-01T10:07:54.325Z,8.5
2023-02-01T10:12:54.008Z,8.6
2023-02-01T10:17:54.009Z,8.7
2023-02-01T10:23:19.163Z,8.8
2023-02-01T10:27:54.010Z,9.0
2023-02-01T10:32:54.014Z,9.0
2023-02-01T10:37:54.013Z,9.0
2023-02-01T10:42:54.020Z,8.9
2023-02-01T10:47:54.014Z,8.8
2023-02-01T10:52:54.024Z,8.8
2023-02-01T10:57:54.028Z,8.8
2023-02-01T11:02:54.096Z,8.8
2023-02-01T11:07:54.033Z,8.8
2023-02-01T11:12:54.020Z,8.8
2023-02-01T11:17:54.033Z,8.8
2023-02-01T11:22:54.026Z,8.9
2023-02-01T11:27:55.316Z,8.8
2023-02-01T11:32:54.052Z,8.8
2023-02-01T11:37:54.170Z,8.8
2023-02-01T11:42:54.030Z,8.8
2023-02-01T11:47:54.045Z,8.9
2023-02-01T11:52:54.091Z,8.9
2023-02-01T11:57:54.054Z,8.9
2023-02-01T12:02:54.149Z,8.9
2023-02-01T12:07:54.065Z,8.9
2023-02-01T12:12:54.044Z,9.0
2023-02-01T12:17:54.043Z,9.0
2023-02-01T12:22:54.040Z,8.9
2023-02-01T12:27:54.044Z,8.9
2023-02-01T12:32:54.046Z,8.8
2023-02-01T12:37:54.079Z,8.8
2023-02-01T12:42:54.054Z,8.9
2023-02-01T12:47:54.053Z,8.9
2023-02-01T12:52:54.074Z,9.0
2023-02-01T12:57:54.067Z,9.0
2023-02-01T13:02:54.082Z,9.0
2023-02-01T13:07:54.065Z,9.1
2023-02-01T13:12:54.060Z,9.2
2023-02-01T13:17:54.082Z,9.4
2023-02-01T13:22:54.067Z,9.6
2023-02-01T13:27:54.094Z,9.6
2023-02-01T13:33:52.608Z,9.7
2023-02-01T13:37:54.081Z,9.7
2023-02-01T13:42:54.089Z,9.7
2023-02-01T13:47:54.087Z,9.8
2023-02-01T13:52:54.078Z,9.8
2023-02-01T13:57:54.081Z,9.8
2023-02-01T14:02:54.083Z,9.8
2023-02-01T14:07:54.087Z,9.7
2023-02-01T14:12:54.086Z,9.7
2023-02-01T14:17:54.130Z,9.7
2023-02-01T14:22:54.087Z,9.6
2023-02-01T14:27:54.088Z,9.6
2023-02-01T14:32:54.420Z,9.6
2023-02-01T14:37:54.098Z,9.5
2023-02-01T14:42:54.104Z,9.5
2023-02-01T14:47:54.095Z,9.5
2023-02-01T14:52:54.096Z,9.5
2023-02-01T14:57:54.102Z,9.4
2023-02-01T15:02:54.138Z,9.5
2023-02-01T15:07:54.101Z,9.4
2023-02-01T15:12:54.118Z,9.4
2023-02-01T15:17:54.270Z,9.4
2023-02-01T15:22:54.104Z,9.3
2023-02-01T15:27:54.108Z,9.3
2023-02-01T15:32:54.143Z,9.3
2023-02-01T15:37:54.189Z,9.3
2023-02-01T15:42:54.119Z,9.2
2023-02-01T15:47:54.119Z,9.2
2023-02-01T15:52:54.119Z,9.2
2023-02-01T15:57:54.118Z,9.2
2023-02-01T16:02:54.204Z,9.2
2023-02-01T16:07:54.121Z,9.2
2023-02-01T16:12:54.126Z,9.2
2023-02-01T16:17:54.128Z,9.2
2023-02-01T16:22:54.123Z,9.2
2023-02-01T16:27:54.148Z,9.2
2023-02-01T16:32:54.128Z,9.2
2023-02-01T16:37:54.143Z,9.3
2023-02-01T16:42:54.137Z,9.3
2023-02-01T16:47:54.142Z,9.3
2023-02-01T16:52:54.371Z,9.3
2023-02-01T16:57:54.144Z,9.3
2023-02-01T17:02:54.237Z,9.3
2023-02-01T17:07:54.154Z,9.3
2023-02-01T17:12:54.149Z,9.3
2023-02-01T17:17:54.153Z,9.3
2023-02-01T17:22:54.147Z,9.4
2023-02-01T17:27:54.150Z,9.3
2023-02-01T17:32:54.172Z,9.3
2023-02-01T17:37:54.158Z,9.3
2023-02-01T17:42:54.159Z,9.3
2023-02-01T17:47:54.165Z,9.3
2023-02-01T17:52:54.160Z,9.3
2023-02-01T17:57:54.173Z,9.3
2023-02-01T18:02:54.162Z,9.3
2023-02-01T18:07:54.175Z,9.3
2023-02-01T18:12:54.173Z,9.3
2023-02-01T18:17:54.203Z,9.3
2023-02-01T18:22:54.200Z,9.3
2023-02-01T18:27:54.171Z,9.3
2023-02-01T18:32:54.173Z,9.4
2023-02-01T18:37:54.168Z,9.3
2023-02-01T18:42:54.181Z,9.3
2023-02-01T18:47:54.178Z,9.3
2023-02-01T18:52:54.176Z,9.3
2023-02-01T18:57:54.177Z,9.3
2023-02-01T19:02:54.235Z,9.3
2023-02-01T19:07:54.206Z,9.3
2023-02-01T19:12:54.181Z,9.3
2023-02-01T19:17:54.187Z,9.3
2023-02-01T19:22:54.184Z,9.3
2023-02-01T19:27:54.542Z,9.3
2023-02-01T19:32:54.193Z,9.4
2023-02-01T19:37:54.196Z,9.4
2023-02-01T19:42:54.199Z,9.4
2023-02-01T19:47:54.300Z,9.4
2023-02-01T19:52:54.213Z,9.4
2023-02-01T19:57:54.198Z,9.4
2023-02-01T20:02:53.431Z,9.4
2023-02-01T20:07:53.363Z,9.4
2023-02-01T20:12:53.353Z,9.5
2023-02-01T20:17:53.352Z,9.5
2023-02-01T20:22:53.352Z,9.5
2023-02-01T20:27:54.224Z,9.5
2023-02-01T20:32:54.229Z,9.5
2023-02-01T20:37:54.284Z,9.5
2023-02-01T20:42:54.240Z,9.6
2023-02-01T20:47:54.235Z,9.6
2023-02-01T20:52:54.241Z,9.6
2023-02-01T20:57:54.254Z,9.6
2023-02-01T21:02:54.264Z,9.6
2023-02-01T21:07:54.269Z,9.6
2023-02-01T21:13:04.758Z,9.6
2023-02-01T21:17:54.262Z,9.6
2023-02-01T21:22:54.267Z,9.6
2023-02-01T21:27:54.270Z,9.6
2023-02-01T21:32:54.267Z,9.6
2023-02-01T21:37:54.271Z,9.7
2023-02-01T21:42:54.278Z,9.6
2023-02-01T21:47:54.285Z,9.6
2023-02-01T21:52:54.277Z,9.6
2023-02-01T21:57:54.283Z,9.6
2023-02-01T22:02:54.288Z,9.6
2023-02-01T22:07:54.286Z,9.5
2023-02-01T22:12:54.280Z,9.5
2023-02-01T22:17:54.297Z,9.5
2023-02-01T22:22:54.285Z,9.4
2023-02-01T22:28:32.841Z,9.4
2023-02-01T22:32:54.307Z,9.4
2023-02-01T22:37:54.287Z,9.4
2023-02-01T22:42:54.280Z,9.4
2023-02-01T22:47:54.297Z,9.4
2023-02-01T22:52:54.276Z,9.4
2023-02-01T22:57:54.287Z,9.3
2023-02-01T23:02:54.332Z,9.3
2023-02-01T23:07:54.266Z,9.2
2023-02-01T23:12:54.279Z,9.1
2023-02-01T23:17:54.381Z,9.1
2023-02-01T23:22:54.265Z,9.1
2023-02-01T23:27:54.269Z,9.1
2023-02-01T23:32:54.268Z,9.1
2023-02-01T23:37:54.282Z,9.0
2023-02-01T23:42:54.274Z,9.0
2023-02-01T23:47:54.275Z,9.0
2023-02-01T23:52:54.272Z,9.0
2023-02-01T23:57:54.291Z,9.0
